Time;durP1;ratioP1;P1;durP2;ratioP2;P2;SDS_P1;SDS_P2;PMS_P1;PMS_P2;Temp;Humidity;BMP_temperature;BMP_pressure;BME280_temperature;BME280_humidity;BME280_pressure;Samples;Min_cycle;Max_cycle;Signal;HPM_P1;HPM_P2
2023/07/05 00:00:15;;;;;;;3.88;2.47;;;;;;;17.11;100.00;90994.69;5031546;28;20424;-68
2023/07/05 00:02:41;;;;;;;2.40;2.20;;;;;;;17.12;100.00;90990.09;5031351;28;20033;-68
2023/07/05 00:05:07;;;;;;;2.97;2.50;;;;;;;16.97;100.00;91000.47;5031427;28;20033;-67
2023/07/05 00:07:33;;;;;;;2.30;2.20;;;;;;;16.86;100.00;90988.66;5031458;28;20032;-67
2023/07/05 00:09:59;;;;;;;1.92;1.77;;;;;;;16.78;100.00;90992.31;5031367;28;20029;-67
2023/07/05 00:12:25;;;;;;;1.98;1.55;;;;;;;16.84;100.00;90995.50;5031140;28;20403;-68
2023/07/05 00:14:51;;;;;;;4.30;2.85;;;;;;;16.88;100.00;90996.38;5031142;28;20044;-68
2023/07/05 00:17:16;;;;;;;2.35;2.15;;;;;;;16.85;100.00;90992.47;5031272;28;20026;-68
2023/07/05 00:19:41;;;;;;;4.03;3.35;;;;;;;16.77;100.00;90996.91;5031287;28;20033;-68
2023/07/05 00:22:07;;;;;;;1.77;1.60;;;;;;;16.72;100.00;91001.72;5031091;28;20018;-68
2023/07/05 00:24:33;;;;;;;3.55;2.13;;;;;;;16.70;100.00;91001.28;5031205;28;20040;-68
2023/07/05 00:26:58;;;;;;;2.40;2.13;;;;;;;16.71;100.00;91006.31;5031119;28;20099;-68
2023/07/05 00:29:24;;;;;;;7.88;2.72;;;;;;;16.55;100.00;91005.47;5031129;28;20494;-68
2023/07/05 00:31:49;;;;;;;5.10;1.98;;;;;;;16.48;100.00;90998.00;5030936;28;20449;-67
2023/07/05 00:34:14;;;;;;;3.55;3.03;;;;;;;16.47;100.00;90999.13;5031046;28;20034;-68
2023/07/05 00:36:40;;;;;;;2.90;2.70;;;;;;;16.53;100.00;91002.34;5031014;28;20076;-68
2023/07/05 00:39:05;;;;;;;2.78;2.58;;;;;;;16.55;100.00;91012.75;5030965;28;20108;-68
2023/07/05 00:41:31;;;;;;;4.22;3.92;;;;;;;16.64;100.00;91014.16;5030903;28;20505;-69
2023/07/05 00:43:56;;;;;;;5.95;2.97;;;;;;;16.67;100.00;91002.75;5030901;28;20025;-68
2023/07/05 00:46:25;;;;;;;4.38;2.75;;;;;;;16.59;100.00;91013.63;5030889;28;20026;-68
2023/07/05 00:49:28;;;;;;;4.32;2.85;;;;;;;16.48;100.00;91019.50;5030836;28;20083;-68
2023/07/05 00:51:59;;;;;;;1.90;1.75;;;;;;;16.40;100.00;91023.09;5028494;28;20466;-67
2023/07/05 00:54:34;;;;;;;4.35;2.72;;;;;;;16.35;100.00;91015.28;5032482;28;20495;-67
2023/07/05 00:57:17;;;;;;;2.92;2.63;;;;;;;16.34;100.00;91007.56;5034896;28;20108;-68
2023/07/05 00:59:57;;;;;;;2.33;2.13;;;;;;;16.30;100.00;91004.00;5034881;28;20519;-68
2023/07/05 01:02:23;;;;;;;2.33;2.22;;;;;;;16.33;100.00;91014.06;5034714;28;20029;-68
2023/07/05 01:04:49;;;;;;;9.50;1.67;;;;;;;16.36;100.00;91011.47;5034767;28;20109;-68
2023/07/05 01:07:15;;;;;;;1.83;1.73;;;;;;;16.27;100.00;91016.22;5034756;28;20061;-67
2023/07/05 01:09:41;;;;;;;3.13;2.92;;;;;;;16.14;100.00;91014.69;5034740;28;20036;-67
2023/07/05 01:12:19;;;;;;;2.30;2.17;;;;;;;16.06;100.00;91013.69;5034505;28;20018;-67
2023/07/05 01:15:09;;;;;;;4.38;2.20;;;;;;;15.93;100.00;91014.03;5034448;28;20093;-67
2023/07/05 01:17:56;;;;;;;2.20;2.10;;;;;;;15.76;100.00;91002.44;5034533;28;20029;-67
2023/07/05 01:20:33;;;;;;;5.70;3.38;;;;;;;15.84;100.00;91004.25;5034554;28;20080;-67
2023/07/05 01:23:15;;;;;;;2.67;1.92;;;;;;;15.77;100.00;91009.38;5033038;28;20030;-67
2023/07/05 01:26:06;;;;;;;2.45;2.35;;;;;;;15.76;100.00;91002.44;5034409;28;20445;-67
2023/07/05 01:28:37;;;;;;;3.42;2.83;;;;;;;15.72;100.00;91003.47;5024223;28;20043;-67
2023/07/05 01:31:30;;;;;;;1.92;1.73;;;;;;;15.70;100.00;90990.41;5034359;28;20034;-67
2023/07/05 01:34:10;;;;;;;2.67;2.47;;;;;;;15.76;100.00;90991.72;5032784;28;20115;-68
2023/07/05 01:36:37;;;;;;;3.22;1.67;;;;;;;15.74;100.00;90993.19;5032163;28;20390;-68
2023/07/05 01:39:03;;;;;;;2.30;2.17;;;;;;;15.82;100.00;90989.59;5033630;28;20020;-68
2023/07/05 01:41:28;;;;;;;3.90;2.42;;;;;;;15.81;100.00;90988.81;5033407;28;20491;-68
2023/07/05 01:43:54;;;;;;;2.55;2.00;;;;;;;15.93;100.00;91001.41;5033482;28;20033;-69
2023/07/05 01:46:22;;;;;;;2.72;2.50;;;;;;;15.94;100.00;90989.59;5033473;28;20014;-69
2023/07/05 01:49:03;;;;;;;2.70;2.50;;;;;;;16.03;100.00;90995.59;5033308;28;20041;-68
2023/07/05 01:51:43;;;;;;;3.40;2.95;;;;;;;16.00;100.00;90990.13;5031753;28;20450;-67
2023/07/05 01:54:23;;;;;;;2.35;1.73;;;;;;;16.01;100.00;90991.69;5033204;28;20033;-68
2023/07/05 01:57:01;;;;;;;2.65;1.67;;;;;;;15.97;100.00;90982.75;5031838;28;20022;-68
2023/07/05 01:59:32;;;;;;;1.77;1.67;;;;;;;15.94;100.00;90980.72;5031486;28;20017;-68
2023/07/05 02:01:59;;;;;;;2.53;2.33;;;;;;;15.90;100.00;90971.81;5032970;28;20105;-69
2023/07/05 02:04:26;;;;;;;5.10;4.07;;;;;;;15.90;100.00;90966.44;5032846;28;20024;-68
2023/07/05 02:06:53;;;;;;;2.03;1.92;;;;;;;15.87;100.00;90967.91;5032992;28;20026;-69
2023/07/05 02:09:19;;;;;;;2.17;2.03;;;;;;;15.95;100.00;90972.38;5033038;28;20092;-68
2023/07/05 02:11:44;;;;;;;1.58;1.48;;;;;;;15.97;100.00;90977.38;5032955;28;20109;-68
2023/07/05 02:14:11;;;;;;;2.22;2.13;;;;;;;15.96;100.00;90968.56;5032631;28;20507;-67
2023/07/05 02:16:38;;;;;;;2.03;1.77;;;;;;;15.96;100.00;90962.41;5032827;28;20063;-67
2023/07/05 02:19:05;;;;;;;5.47;1.75;;;;;;;15.94;100.00;90964.63;5032926;28;20068;-67
2023/07/05 02:21:30;;;;;;;5.88;2.15;;;;;;;15.72;100.00;90960.56;5031427;28;20022;-68
2023/07/05 02:23:56;;;;;;;1.90;1.80;;;;;;;15.65;100.00;90965.72;5032515;28;20028;-68
2023/07/05 02:26:21;;;;;;;1.95;1.85;;;;;;;15.65;100.00;90971.88;5032818;28;20026;-67
2023/07/05 02:28:46;;;;;;;2.45;1.52;;;;;;;15.64;100.00;90980.25;5033236;28;20403;-67
2023/07/05 02:31:12;;;;;;;2.65;2.55;;;;;;;15.50;100.00;90978.66;5033362;28;20102;-67
2023/07/05 02:33:43;;;;;;;1.20;1.17;;;;;;;15.45;100.00;90980.78;5033282;28;20869;-66
2023/07/05 02:36:13;;;;;;;2.05;1.83;;;;;;;15.38;100.00;90972.53;5033120;28;20021;-67
2023/07/05 02:38:40;;;;;;;2.95;2.75;;;;;;;15.39;100.00;90971.41;5032953;28;20120;-67
2023/07/05 02:41:06;;;;;;;2.35;2.17;;;;;;;15.33;100.00;90973.53;5032909;28;20483;-67
2023/07/05 02:43:32;;;;;;;2.58;1.48;;;;;;;15.40;100.00;90978.34;5033008;28;20037;-67
2023/07/05 02:45:57;;;;;;;4.25;2.55;;;;;;;15.31;100.00;90980.38;5032698;28;20039;-67
2023/07/05 02:48:22;;;;;;;1.20;1.20;;;;;;;15.31;100.00;90975.00;5032846;28;20049;-67
2023/07/05 02:50:48;;;;;;;4.63;3.35;;;;;;;15.32;100.00;90969.31;5032667;28;20499;-67
2023/07/05 02:53:13;;;;;;;1.48;1.38;;;;;;;15.31;100.00;90964.28;5032881;28;20037;-67
2023/07/05 02:55:39;;;;;;;2.97;2.20;;;;;;;15.27;100.00;90972.97;5032666;28;20499;-67
2023/07/05 02:58:04;;;;;;;2.25;2.13;;;;;;;15.26;100.00;90976.00;5032611;28;20080;-68
2023/07/05 03:00:30;;;;;;;1.83;1.52;;;;;;;15.28;100.00;90971.84;5032342;28;20083;-68
2023/07/05 03:02:56;;;;;;;3.05;1.58;;;;;;;15.35;100.00;90970.53;5032053;28;20450;-68
2023/07/05 03:05:22;;;;;;;3.63;1.70;;;;;;;15.37;100.00;90973.66;5031901;28;20020;-68
2023/07/05 03:07:47;;;;;;;3.05;2.85;;;;;;;15.41;100.00;90969.16;5032454;28;20045;-67
2023/07/05 03:10:13;;;;;;;1.98;1.85;;;;;;;15.42;100.00;90965.38;5032371;28;20463;-67
2023/07/05 03:12:40;;;;;;;2.78;2.20;;;;;;;15.56;100.00;90966.59;5032099;28;20032;-68
2023/07/05 03:15:06;;;;;;;2.10;2.00;;;;;;;15.68;100.00;90967.72;5031665;28;20052;-68
2023/07/05 03:17:33;;;;;;;2.55;2.38;;;;;;;15.80;100.00;90960.44;5031569;28;20025;-68
2023/07/05 03:19:59;;;;;;;3.13;2.20;;;;;;;15.85;100.00;90968.25;5032231;28;20571;-67
2023/07/05 03:22:26;;;;;;;3.80;2.05;;;;;;;15.87;100.00;90960.63;5032151;28;20083;-67
2023/07/05 03:24:52;;;;;;;3.83;2.30;;;;;;;15.93;100.00;90957.69;5032235;28;20404;-67
2023/07/05 03:27:18;;;;;;;3.03;2.63;;;;;;;15.85;100.00;90951.38;5032134;28;20028;-67
2023/07/05 03:29:43;;;;;;;1.77;1.67;;;;;;;15.77;100.00;90954.94;5032049;28;20495;-67
2023/07/05 03:32:08;;;;;;;1.30;1.23;;;;;;;15.67;100.00;90958.13;5031793;28;20021;-67
2023/07/05 03:34:34;;;;;;;4.78;2.03;;;;;;;15.58;100.00;90963.56;5031877;28;20048;-67
2023/07/05 03:36:59;;;;;;;2.58;2.38;;;;;;;15.54;100.00;90957.31;5031955;28;20035;-67
2023/07/05 03:39:25;;;;;;;2.92;2.63;;;;;;;15.55;100.00;90954.28;5031864;28;20021;-67
2023/07/05 03:41:50;;;;;;;4.75;2.85;;;;;;;15.65;100.00;90944.28;5030419;28;20557;-67
2023/07/05 03:44:16;;;;;;;2.90;2.35;;;;;;;15.70;100.00;90933.28;5031761;28;20116;-67
2023/07/05 03:46:43;;;;;;;3.72;2.90;;;;;;;15.78;100.00;90930.50;5032067;28;20083;-67
2023/07/05 03:49:08;;;;;;;1.30;1.30;;;;;;;15.83;100.00;90932.16;5031732;28;20099;-68
2023/07/05 03:51:34;;;;;;;2.70;2.53;;;;;;;15.91;100.00;90922.38;5031618;28;20025;-68
2023/07/05 03:53:59;;;;;;;2.40;2.22;;;;;;;15.98;100.00;90920.69;5031662;28;20025;-68
2023/07/05 03:56:27;;;;;;;3.17;2.53;;;;;;;16.06;100.00;90918.97;5031553;28;20033;-68
2023/07/05 03:58:53;;;;;;;1.85;1.75;;;;;;;16.13;100.00;90924.56;5031607;28;20026;-69
2023/07/05 04:01:24;;;;;;;2.45;2.30;;;;;;;16.22;100.00;90922.50;5031329;28;20033;-69
2023/07/05 04:03:53;;;;;;;4.93;3.38;;;;;;;16.28;100.00;90923.81;5031490;28;20029;-66
2023/07/05 04:06:19;;;;;;;1.83;1.70;;;;;;;16.31;100.00;90914.31;5031688;28;20136;-66
2023/07/05 04:08:45;;;;;;;1.50;1.40;;;;;;;16.39;100.00;90911.44;5031402;28;20477;-67
2023/07/05 04:11:11;;;;;;;3.00;1.98;;;;;;;16.63;100.00;90925.88;5031322;28;20041;-67
2023/07/05 04:13:37;;;;;;;2.35;2.05;;;;;;;16.79;100.00;90928.59;5031085;28;20022;-68
2023/07/05 04:16:08;;;;;;;2.30;2.10;;;;;;;16.90;100.00;90929.66;5031571;28;20095;-67
2023/07/05 04:18:34;;;;;;;2.53;1.95;;;;;;;16.98;100.00;90924.09;5031270;28;20064;-66
2023/07/05 04:21:00;;;;;;;2.88;2.67;;;;;;;17.16;100.00;90923.72;5031139;28;20520;-68
2023/07/05 04:23:26;;;;;;;2.53;2.15;;;;;;;17.30;100.00;90932.13;5031170;28;20030;-67
2023/07/05 04:25:59;;;;;;;4.28;1.95;;;;;;;17.37;100.00;90916.19;5031195;28;20030;-67
2023/07/05 04:28:24;;;;;;;;;;;;;;;17.49;100.00;90921.44;5031570;28;20037;-67
2023/07/05 04:30:50;;;;;;;5.43;3.20;;;;;;;17.55;100.00;90916.56;5031023;28;20051;-68
2023/07/05 04:33:15;;;;;;;1.65;1.52;;;;;;;17.64;100.00;90912.53;5031004;28;20774;-67
2023/07/05 04:35:49;;;;;;;4.45;3.65;;;;;;;17.66;100.00;90912.97;5031019;28;20044;-67
2023/07/05 04:38:14;;;;;;;2.85;2.17;;;;;;;17.72;100.00;90910.06;5031023;28;20037;-67
2023/07/05 04:40:41;;;;;;;2.10;2.00;;;;;;;17.80;100.00;90909.06;5030979;28;20247;-67
2023/07/05 04:43:06;;;;;;;4.05;3.08;;;;;;;17.92;100.00;90906.25;5031092;28;20462;-67
2023/07/05 04:45:32;;;;;;;4.65;3.25;;;;;;;18.09;100.00;90892.34;5030931;28;20610;-68
2023/07/05 04:47:57;;;;;;;2.47;2.22;;;;;;;18.30;100.00;90901.97;5030881;28;20040;-68
2023/07/05 04:50:22;;;;;;;2.50;2.30;;;;;;;18.44;100.00;90897.63;5030853;28;20021;-68
2023/07/05 04:52:48;;;;;;;1.98;1.88;;;;;;;18.70;100.00;90913.16;5030596;28;20026;-68
2023/07/05 04:55:13;;;;;;;4.10;2.97;;;;;;;18.84;100.00;90920.72;5030847;28;20031;-68
2023/07/05 04:57:38;;;;;;;3.42;3.13;;;;;;;18.79;100.00;90912.94;5030738;28;20372;-68
2023/07/05 05:00:05;;;;;;;5.50;4.32;;;;;;;18.64;100.00;90919.97;5030782;28;20123;-68
2023/07/05 05:02:31;;;;;;;5.25;3.22;;;;;;;18.59;100.00;90933.69;5030646;28;20385;-68
2023/07/05 05:04:56;;;;;;;3.28;2.97;;;;;;;18.63;100.00;90926.50;5030603;28;20022;-68
2023/07/05 05:07:22;;;;;;;2.28;2.10;;;;;;;18.62;100.00;90933.00;5030697;28;20488;-68
2023/07/05 05:09:47;;;;;;;18.77;4.40;;;;;;;18.84;100.00;90937.66;5030667;28;20099;-68
2023/07/05 05:12:12;;;;;;;4.93;3.00;;;;;;;18.94;100.00;90940.91;5030491;28;20032;-68
2023/07/05 05:14:38;;;;;;;5.75;3.38;;;;;;;19.09;100.00;90948.88;5030467;28;20539;-68
2023/07/05 05:17:03;;;;;;;6.80;5.15;;;;;;;19.20;100.00;90940.19;5030622;28;20113;-68
2023/07/05 05:19:29;;;;;;;6.20;4.47;;;;;;;19.35;100.00;90947.38;5030631;28;20056;-68
2023/07/05 05:21:54;;;;;;;4.32;2.95;;;;;;;19.38;100.00;90952.03;5030577;28;20047;-68
2023/07/05 05:24:19;;;;;;;12.80;3.55;;;;;;;19.64;100.00;90951.31;5030607;28;20033;-68
2023/07/05 05:26:46;;;;;;;3.70;3.22;;;;;;;19.85;100.00;90948.13;5029236;28;20124;-68
2023/07/05 05:29:12;;;;;;;2.05;1.95;;;;;;;19.89;100.00;90960.56;5030491;28;20079;-68
2023/07/05 05:31:38;;;;;;;2.22;2.13;;;;;;;20.00;100.00;90960.69;5030493;28;20022;-67
2023/07/05 05:34:03;;;;;;;8.05;4.18;;;;;;;19.98;100.00;90957.59;5030403;28;20029;-68
2023/07/05 05:36:29;;;;;;;3.50;3.05;;;;;;;20.14;100.00;90962.81;5030370;28;20095;-67
2023/07/05 05:38:54;;;;;;;2.88;2.67;;;;;;;20.03;100.00;90960.75;5030305;28;20511;-67
2023/07/05 05:41:19;;;;;;;5.57;3.83;;;;;;;20.06;100.00;90966.56;5033202;28;20453;-69
2023/07/05 05:43:45;;;;;;;3.85;3.45;;;;;;;20.40;100.00;90976.28;5034105;28;20037;-68
2023/07/05 05:46:11;;;;;;;3.88;3.50;;;;;;;20.66;100.00;90971.97;5034014;28;20030;-68
2023/07/05 05:48:36;;;;;;;2.47;2.28;;;;;;;21.11;100.00;90971.69;5034033;28;20029;-67
2023/07/05 05:51:02;;;;;;;2.78;2.58;;;;;;;23.26;100.00;90969.94;5033938;28;20025;-67
2023/07/05 05:53:27;;;;;;;3.25;3.05;;;;;;;26.77;100.00;90968.81;5033903;28;20021;-68
2023/07/05 05:55:56;;;;;;;3.38;3.08;;;;;;;29.43;100.00;90967.72;5033956;28;20033;-68
2023/07/05 05:58:22;;;;;;;3.47;2.80;;;;;;;30.69;93.56;90967.94;5033978;28;20026;-67
2023/07/05 06:00:48;;;;;;;2.35;2.17;;;;;;;32.24;65.06;90965.88;5027779;28;20047;-66
2023/07/05 06:03:13;;;;;;;3.30;3.00;;;;;;;33.09;59.91;90978.03;5016545;28;20566;-67
2023/07/05 06:05:41;;;;;;;3.38;2.42;;;;;;;33.64;56.74;90982.75;5032595;28;20017;-67
2023/07/05 06:08:06;;;;;;;3.03;2.03;;;;;;;35.28;52.21;90986.50;5032715;28;20100;-66
2023/07/05 06:10:31;;;;;;;2.97;2.58;;;;;;;35.63;49.51;90987.72;5032338;28;20124;-65
2023/07/05 06:12:57;;;;;;;13.95;2.88;;;;;;;35.19;50.19;90981.75;5029712;28;20497;-67
2023/07/05 06:15:22;;;;;;;4.47;2.67;;;;;;;35.91;48.29;90987.72;5032393;28;20809;-67
2023/07/05 06:17:47;;;;;;;2.92;2.53;;;;;;;35.88;48.57;90983.88;5032542;28;20033;-66
2023/07/05 06:20:16;;;;;;;2.70;2.45;;;;;;;35.13;47.90;90980.81;5032391;28;20481;-68
2023/07/05 06:22:42;;;;;;;2.75;2.55;;;;;;;34.52;50.32;90988.06;5033408;28;20028;-66
2023/07/05 06:25:10;;;;;;;2.80;2.60;;;;;;;35.59;49.28;90973.28;5032804;28;20466;-68
2023/07/05 06:27:36;;;;;;;5.80;2.35;;;;;;;36.64;47.05;90978.38;5033235;28;20029;-65
2023/07/05 06:30:02;;;;;;;3.25;2.47;;;;;;;37.25;46.00;90979.69;5033066;28;20068;-67
2023/07/05 06:32:28;;;;;;;3.08;2.67;;;;;;;37.51;44.43;90982.72;5033161;28;20029;-67
2023/07/05 06:34:53;;;;;;;2.70;2.17;;;;;;;36.69;45.81;90966.63;5033292;28;20419;-66
